sensor_id;sensor_type;location;lat;lon;timestamp;temperature;humidity
32600;DHT22;19277;51.778;7.912;2022-08-16T00:00:13;24.50;69.70
32600;DHT22;19277;51.778;7.912;2022-08-16T00:02:39;24.60;69.30
32600;DHT22;19277;51.778;7.912;2022-08-16T00:05:07;24.70;69.40
32600;DHT22;19277;51.778;7.912;2022-08-16T00:07:33;24.70;69.20
32600;DHT22;19277;51.778;7.912;2022-08-16T00:09:59;24.70;68.90
32600;DHT22;19277;51.778;7.912;2022-08-16T00:12:28;24.70;69.00
32600;DHT22;19277;51.778;7.912;2022-08-16T00:14:55;24.70;69.00
32600;DHT22;19277;51.778;7.912;2022-08-16T00:17:20;24.70;68.70
32600;DHT22;19277;51.778;7.912;2022-08-16T00:19:46;24.80;68.40
32600;DHT22;19277;51.778;7.912;2022-08-16T00:22:12;24.80;68.30
32600;DHT22;19277;51.778;7.912;2022-08-16T00:24:38;24.80;68.20
32600;DHT22;19277;51.778;7.912;2022-08-16T00:27:04;24.70;68.50
32600;DHT22;19277;51.778;7.912;2022-08-16T00:29:30;24.60;68.60
32600;DHT22;19277;51.778;7.912;2022-08-16T00:31:57;24.50;68.90
32600;DHT22;19277;51.778;7.912;2022-08-16T00:34:23;24.50;69.10
32600;DHT22;19277;51.778;7.912;2022-08-16T00:36:49;24.40;69.30
32600;DHT22;19277;51.778;7.912;2022-08-16T00:39:16;24.40;69.40
32600;DHT22;19277;51.778;7.912;2022-08-16T00:41:44;24.30;69.40
32600;DHT22;19277;51.778;7.912;2022-08-16T00:44:11;24.40;69.40
32600;DHT22;19277;51.778;7.912;2022-08-16T00:46:44;24.50;69.00
32600;DHT22;19277;51.778;7.912;2022-08-16T00:49:12;24.50;68.90
32600;DHT22;19277;51.778;7.912;2022-08-16T00:51:38;24.50;69.20
32600;DHT22;19277;51.778;7.912;2022-08-16T00:54:05;24.50;69.10
32600;DHT22;19277;51.778;7.912;2022-08-16T00:56:33;24.50;69.00
32600;DHT22;19277;51.778;7.912;2022-08-16T00:59:00;24.50;69.20
32600;DHT22;19277;51.778;7.912;2022-08-16T01:01:26;24.50;69.10
32600;DHT22;19277;51.778;7.912;2022-08-16T01:03:53;24.50;69.20
32600;DHT22;19277;51.778;7.912;2022-08-16T01:06:20;24.50;69.10
32600;DHT22;19277;51.778;7.912;2022-08-16T01:08:48;24.50;69.20
32600;DHT22;19277;51.778;7.912;2022-08-16T01:11:14;24.50;69.10
32600;DHT22;19277;51.778;7.912;2022-08-16T01:13:42;24.50;69.30
32600;DHT22;19277;51.778;7.912;2022-08-16T01:16:28;24.50;69.20
32600;DHT22;19277;51.778;7.912;2022-08-16T01:21:58;24.50;69.20
32600;DHT22;19277;51.778;7.912;2022-08-16T01:27:00;24.50;69.40
32600;DHT22;19277;51.778;7.912;2022-08-16T01:29:36;24.40;69.50
32600;DHT22;19277;51.778;7.912;2022-08-16T01:32:04;24.40;69.50
32600;DHT22;19277;51.778;7.912;2022-08-16T01:34:30;24.40;69.50
32600;DHT22;19277;51.778;7.912;2022-08-16T01:37:06;24.30;69.70
32600;DHT22;19277;51.778;7.912;2022-08-16T01:39:33;24.30;70.20
32600;DHT22;19277;51.778;7.912;2022-08-16T01:42:00;24.20;69.80
32600;DHT22;19277;51.778;7.912;2022-08-16T01:44:26;24.20;69.70
32600;DHT22;19277;51.778;7.912;2022-08-16T01:46:52;24.30;69.70
32600;DHT22;19277;51.778;7.912;2022-08-16T01:49:40;24.30;69.90
32600;DHT22;19277;51.778;7.912;2022-08-16T01:52:16;24.30;69.90
32600;DHT22;19277;51.778;7.912;2022-08-16T01:54:42;24.20;70.00
32600;DHT22;19277;51.778;7.912;2022-08-16T01:57:08;24.10;70.20
32600;DHT22;19277;51.778;7.912;2022-08-16T01:59:35;24.20;70.10
32600;DHT22;19277;51.778;7.912;2022-08-16T02:02:02;24.20;70.00
32600;DHT22;19277;51.778;7.912;2022-08-16T02:04:29;24.10;70.00
32600;DHT22;19277;51.778;7.912;2022-08-16T02:06:55;24.20;70.00
32600;DHT22;19277;51.778;7.912;2022-08-16T02:09:22;24.20;70.00
32600;DHT22;19277;51.778;7.912;2022-08-16T02:11:51;24.20;70.50
32600;DHT22;19277;51.778;7.912;2022-08-16T02:14:18;24.20;69.90
32600;DHT22;19277;51.778;7.912;2022-08-16T02:16:43;24.20;70.60
32600;DHT22;19277;51.778;7.912;2022-08-16T02:19:10;24.10;70.30
32600;DHT22;19277;51.778;7.912;2022-08-16T02:21:37;24.10;70.00
32600;DHT22;19277;51.778;7.912;2022-08-16T02:24:03;24.10;70.30
32600;DHT22;19277;51.778;7.912;2022-08-16T02:26:29;24.10;70.20
32600;DHT22;19277;51.778;7.912;2022-08-16T02:28:55;23.90;70.40
32600;DHT22;19277;51.778;7.912;2022-08-16T02:31:21;23.90;70.50
32600;DHT22;19277;51.778;7.912;2022-08-16T02:33:47;23.80;70.70
32600;DHT22;19277;51.778;7.912;2022-08-16T02:36:13;23.80;71.00
32600;DHT22;19277;51.778;7.912;2022-08-16T02:38:40;23.70;71.10
32600;DHT22;19277;51.778;7.912;2022-08-16T02:41:07;23.60;71.40
32600;DHT22;19277;51.778;7.912;2022-08-16T02:43:35;23.50;71.70
32600;DHT22;19277;51.778;7.912;2022-08-16T02:46:02;23.50;71.70
32600;DHT22;19277;51.778;7.912;2022-08-16T02:48:28;23.50;71.60
32600;DHT22;19277;51.778;7.912;2022-08-16T02:50:57;23.50;71.50
32600;DHT22;19277;51.778;7.912;2022-08-16T02:53:23;23.50;71.50
32600;DHT22;19277;51.778;7.912;2022-08-16T02:55:48;23.50;72.30
32600;DHT22;19277;51.778;7.912;2022-08-16T02:58:14;23.60;71.20
32600;DHT22;19277;51.778;7.912;2022-08-16T03:00:39;23.60;71.40
32600;DHT22;19277;51.778;7.912;2022-08-16T03:03:05;23.60;71.00
32600;DHT22;19277;51.778;7.912;2022-08-16T03:05:32;23.70;71.00
32600;DHT22;19277;51.778;7.912;2022-08-16T03:07:58;23.70;71.00
32600;DHT22;19277;51.778;7.912;2022-08-16T03:10:23;23.60;71.10
32600;DHT22;19277;51.778;7.912;2022-08-16T03:12:49;23.70;71.20
32600;DHT22;19277;51.778;7.912;2022-08-16T03:15:16;23.70;71.10
32600;DHT22;19277;51.778;7.912;2022-08-16T03:17:43;23.80;71.20
32600;DHT22;19277;51.778;7.912;2022-08-16T03:20:11;23.80;70.70
32600;DHT22;19277;51.778;7.912;2022-08-16T03:22:38;23.70;71.00
32600;DHT22;19277;51.778;7.912;2022-08-16T03:25:07;23.70;70.70
32600;DHT22;19277;51.778;7.912;2022-08-16T03:27:34;23.60;71.00
32600;DHT22;19277;51.778;7.912;2022-08-16T03:30:03;23.60;71.40
32600;DHT22;19277;51.778;7.912;2022-08-16T03:32:28;23.50;71.40
32600;DHT22;19277;51.778;7.912;2022-08-16T03:34:54;23.60;71.30
32600;DHT22;19277;51.778;7.912;2022-08-16T03:37:20;23.50;71.40
32600;DHT22;19277;51.778;7.912;2022-08-16T03:39:45;23.40;71.70
32600;DHT22;19277;51.778;7.912;2022-08-16T03:42:11;23.40;71.90
32600;DHT22;19277;51.778;7.912;2022-08-16T03:44:36;23.30;71.90
32600;DHT22;19277;51.778;7.912;2022-08-16T03:47:02;23.30;72.20
32600;DHT22;19277;51.778;7.912;2022-08-16T03:49:28;23.20;72.50
32600;DHT22;19277;51.778;7.912;2022-08-16T03:51:55;23.20;72.60
32600;DHT22;19277;51.778;7.912;2022-08-16T03:54:20;23.20;72.50
32600;DHT22;19277;51.778;7.912;2022-08-16T03:56:46;23.20;72.60
32600;DHT22;19277;51.778;7.912;2022-08-16T03:59:11;23.20;72.70
32600;DHT22;19277;51.778;7.912;2022-08-16T04:01:38;23.30;72.30
32600;DHT22;19277;51.778;7.912;2022-08-16T04:04:04;23.30;72.40
32600;DHT22;19277;51.778;7.912;2022-08-16T04:06:30;23.30;72.30
32600;DHT22;19277;51.778;7.912;2022-08-16T04:08:55;23.20;72.40
32600;DHT22;19277;51.778;7.912;2022-08-16T04:11:21;23.20;72.80
32600;DHT22;19277;51.778;7.912;2022-08-16T04:13:46;23.20;72.60
32600;DHT22;19277;51.778;7.912;2022-08-16T04:16:12;23.20;72.40
32600;DHT22;19277;51.778;7.912;2022-08-16T04:18:38;23.30;72.30
32600;DHT22;19277;51.778;7.912;2022-08-16T04:21:07;23.20;72.30
32600;DHT22;19277;51.778;7.912;2022-08-16T04:23:33;23.30;72.40
32600;DHT22;19277;51.778;7.912;2022-08-16T04:25:58;23.30;72.40
32600;DHT22;19277;51.778;7.912;2022-08-16T04:28:24;23.20;72.60
32600;DHT22;19277;51.778;7.912;2022-08-16T04:30:51;23.20;72.80
32600;DHT22;19277;51.778;7.912;2022-08-16T04:33:17;23.10;73.20
32600;DHT22;19277;51.778;7.912;2022-08-16T04:35:42;23.10;73.20
32600;DHT22;19277;51.778;7.912;2022-08-16T04:38:08;23.20;73.10
32600;DHT22;19277;51.778;7.912;2022-08-16T04:40:34;23.20;73.20
32600;DHT22;19277;51.778;7.912;2022-08-16T04:42:59;23.20;73.10
32600;DHT22;19277;51.778;7.912;2022-08-16T04:45:26;23.20;73.00
32600;DHT22;19277;51.778;7.912;2022-08-16T04:47:51;23.20;73.30
32600;DHT22;19277;51.778;7.912;2022-08-16T04:50:19;23.20;73.00
32600;DHT22;19277;51.778;7.912;2022-08-16T04:52:48;23.30;72.90
32600;DHT22;19277;51.778;7.912;2022-08-16T04:55:18;23.40;72.70
32600;DHT22;19277;51.778;7.912;2022-08-16T04:57:46;23.50;72.40
32600;DHT22;19277;51.778;7.912;2022-08-16T05:00:16;23.60;72.10
32600;DHT22;19277;51.778;7.912;2022-08-16T05:02:44;23.70;72.00
32600;DHT22;19277;51.778;7.912;2022-08-16T05:05:11;23.70;72.10
32600;DHT22;19277;51.778;7.912;2022-08-16T05:07:37;23.70;72.20
32600;DHT22;19277;51.778;7.912;2022-08-16T05:10:04;23.70;72.20
32600;DHT22;19277;51.778;7.912;2022-08-16T05:12:31;23.80;71.80
32600;DHT22;19277;51.778;7.912;2022-08-16T05:14:56;23.80;71.80
32600;DHT22;19277;51.778;7.912;2022-08-16T05:17:22;23.80;71.70
32600;DHT22;19277;51.778;7.912;2022-08-16T05:19:48;23.90;71.60
32600;DHT22;19277;51.778;7.912;2022-08-16T05:22:14;23.90;71.50
32600;DHT22;19277;51.778;7.912;2022-08-16T05:24:39;23.80;71.70
32600;DHT22;19277;51.778;7.912;2022-08-16T05:27:05;23.80;71.70
32600;DHT22;19277;51.778;7.912;2022-08-16T05:29:31;23.70;72.00
32600;DHT22;19277;51.778;7.912;2022-08-16T05:31:57;23.80;72.00
32600;DHT22;19277;51.778;7.912;2022-08-16T05:34:22;23.80;71.90
32600;DHT22;19277;51.778;7.912;2022-08-16T05:36:50;23.80;72.00
32600;DHT22;19277;51.778;7.912;2022-08-16T05:39:19;23.80;71.90
32600;DHT22;19277;51.778;7.912;2022-08-16T05:41:45;23.80;71.80
32600;DHT22;19277;51.778;7.912;2022-08-16T05:44:11;23.90;71.70
32600;DHT22;19277;51.778;7.912;2022-08-16T05:46:36;24.10;71.40
32600;DHT22;19277;51.778;7.912;2022-08-16T05:49:02;24.00;71.20
32600;DHT22;19277;51.778;7.912;2022-08-16T05:51:28;24.10;71.00
32600;DHT22;19277;51.778;7.912;2022-08-16T05:53:54;24.10;71.00
32600;DHT22;19277;51.778;7.912;2022-08-16T05:56:19;24.10;70.90
32600;DHT22;19277;51.778;7.912;2022-08-16T05:58:45;24.20;70.60
32600;DHT22;19277;51.778;7.912;2022-08-16T06:01:10;24.20;70.80
32600;DHT22;19277;51.778;7.912;2022-08-16T06:03:36;24.20;70.60
32600;DHT22;19277;51.778;7.912;2022-08-16T06:06:02;24.30;70.50
32600;DHT22;19277;51.778;7.912;2022-08-16T06:08:28;24.40;70.50
32600;DHT22;19277;51.778;7.912;2022-08-16T06:10:54;24.40;70.30
32600;DHT22;19277;51.778;7.912;2022-08-16T06:13:20;24.50;70.40
32600;DHT22;19277;51.778;7.912;2022-08-16T06:15:45;24.50;70.20
32600;DHT22;19277;51.778;7.912;2022-08-16T06:18:11;24.60;70.00
32600;DHT22;19277;51.778;7.912;2022-08-16T06:20:36;24.70;69.70
32600;DHT22;19277;51.778;7.912;2022-08-16T06:23:02;24.80;70.00
32600;DHT22;19277;51.778;7.912;2022-08-16T06:25:28;24.90;69.80
32600;DHT22;19277;51.778;7.912;2022-08-16T06:27:54;24.90;69.50
32600;DHT22;19277;51.778;7.912;2022-08-16T06:30:20;25.00;69.30
32600;DHT22;19277;51.778;7.912;2022-08-16T06:32:45;25.10;69.00
32600;DHT22;19277;51.778;7.912;2022-08-16T06:35:11;25.20;68.80
32600;DHT22;19277;51.778;7.912;2022-08-16T06:37:38;25.20;68.50
32600;DHT22;19277;51.778;7.912;2022-08-16T06:40:05;25.30;68.60
32600;DHT22;19277;51.778;7.912;2022-08-16T06:42:31;25.40;68.10
32600;DHT22;19277;51.778;7.912;2022-08-16T06:44:57;25.30;68.20
32600;DHT22;19277;51.778;7.912;2022-08-16T06:47:23;25.30;68.30
32600;DHT22;19277;51.778;7.912;2022-08-16T06:49:49;25.30;68.60
32600;DHT22;19277;51.778;7.912;2022-08-16T06:52:14;25.20;68.50
32600;DHT22;19277;51.778;7.912;2022-08-16T06:54:41;25.30;68.40
32600;DHT22;19277;51.778;7.912;2022-08-16T06:57:06;25.30;68.40
32600;DHT22;19277;51.778;7.912;2022-08-16T06:59:35;25.50;68.50
32600;DHT22;19277;51.778;7.912;2022-08-16T07:02:01;25.50;68.30
32600;DHT22;19277;51.778;7.912;2022-08-16T07:04:27;25.50;68.40
32600;DHT22;19277;51.778;7.912;2022-08-16T07:06:53;25.70;68.40
32600;DHT22;19277;51.778;7.912;2022-08-16T07:09:19;25.80;68.10
32600;DHT22;19277;51.778;7.912;2022-08-16T07:11:44;26.00;67.70
32600;DHT22;19277;51.778;7.912;2022-08-16T07:14:10;26.20;67.10
32600;DHT22;19277;51.778;7.912;2022-08-16T07:16:36;26.40;66.80
32600;DHT22;19277;51.778;7.912;2022-08-16T07:19:02;26.60;66.50
32600;DHT22;19277;51.778;7.912;2022-08-16T07:21:28;26.70;66.30
32600;DHT22;19277;51.778;7.912;2022-08-16T07:23:53;26.90;65.90
32600;DHT22;19277;51.778;7.912;2022-08-16T07:26:24;27.00;65.70
32600;DHT22;19277;51.778;7.912;2022-08-16T07:28:50;27.10;65.60
32600;DHT22;19277;51.778;7.912;2022-08-16T07:31:17;27.10;65.40
32600;DHT22;19277;51.778;7.912;2022-08-16T07:33:43;27.20;65.40
32600;DHT22;19277;51.778;7.912;2022-08-16T07:36:10;27.20;65.10
32600;DHT22;19277;51.778;7.912;2022-08-16T07:38:36;27.30;65.00
32600;DHT22;19277;51.778;7.912;2022-08-16T07:41:02;27.40;64.90
32600;DHT22;19277;51.778;7.912;2022-08-16T07:43:28;27.50;64.70
32600;DHT22;19277;51.778;7.912;2022-08-16T07:45:54;27.50;64.50
32600;DHT22;19277;51.778;7.912;2022-08-16T07:48:21;27.60;64.50
32600;DHT22;19277;51.778;7.912;2022-08-16T07:50:46;27.60;64.20
32600;DHT22;19277;51.778;7.912;2022-08-16T07:53:13;27.60;64.50
32600;DHT22;19277;51.778;7.912;2022-08-16T07:55:40;27.60;64.40
32600;DHT22;19277;51.778;7.912;2022-08-16T07:58:05;27.60;64.30
32600;DHT22;19277;51.778;7.912;2022-08-16T08:00:33;27.60;64.20
32600;DHT22;19277;51.778;7.912;2022-08-16T08:02:59;27.60;64.20
32600;DHT22;19277;51.778;7.912;2022-08-16T08:05:25;27.60;64.20
32600;DHT22;19277;51.778;7.912;2022-08-16T08:07:51;27.60;64.10
32600;DHT22;19277;51.778;7.912;2022-08-16T08:10:18;27.70;63.90
32600;DHT22;19277;51.778;7.912;2022-08-16T08:12:47;27.70;63.80
32600;DHT22;19277;51.778;7.912;2022-08-16T08:15:13;27.70;63.90
32600;DHT22;19277;51.778;7.912;2022-08-16T08:17:39;27.70;64.30
32600;DHT22;19277;51.778;7.912;2022-08-16T08:20:07;27.70;64.30
32600;DHT22;19277;51.778;7.912;2022-08-16T08:22:33;27.70;65.00
32600;DHT22;19277;51.778;7.912;2022-08-16T08:25:00;27.70;64.60
32600;DHT22;19277;51.778;7.912;2022-08-16T08:27:27;27.60;64.50
32600;DHT22;19277;51.778;7.912;2022-08-16T08:29:53;27.60;64.50
32600;DHT22;19277;51.778;7.912;2022-08-16T08:32:19;27.60;64.60
32600;DHT22;19277;51.778;7.912;2022-08-16T08:34:46;27.60;64.70
32600;DHT22;19277;51.778;7.912;2022-08-16T08:37:12;27.60;64.60
32600;DHT22;19277;51.778;7.912;2022-08-16T08:39:37;27.60;64.80
32600;DHT22;19277;51.778;7.912;2022-08-16T08:42:04;27.60;64.70
32600;DHT22;19277;51.778;7.912;2022-08-16T08:44:30;27.60;64.50
32600;DHT22;19277;51.778;7.912;2022-08-16T08:46:58;27.70;64.50
32600;DHT22;19277;51.778;7.912;2022-08-16T08:49:23;27.70;64.50
32600;DHT22;19277;51.778;7.912;2022-08-16T08:51:50;27.70;64.40
32600;DHT22;19277;51.778;7.912;2022-08-16T08:54:16;27.70;64.50
32600;DHT22;19277;51.778;7.912;2022-08-16T08:56:43;27.70;64.50
32600;DHT22;19277;51.778;7.912;2022-08-16T08:59:09;27.70;64.60
32600;DHT22;19277;51.778;7.912;2022-08-16T09:01:36;27.70;64.20
32600;DHT22;19277;51.778;7.912;2022-08-16T09:04:04;27.70;64.80
32600;DHT22;19277;51.778;7.912;2022-08-16T09:06:31;27.80;64.30
32600;DHT22;19277;51.778;7.912;2022-08-16T09:08:58;27.80;64.30
32600;DHT22;19277;51.778;7.912;2022-08-16T09:11:25;27.90;64.20
32600;DHT22;19277;51.778;7.912;2022-08-16T09:13:51;27.90;64.10
32600;DHT22;19277;51.778;7.912;2022-08-16T09:16:16;27.90;64.10
32600;DHT22;19277;51.778;7.912;2022-08-16T09:18:43;27.90;64.00
32600;DHT22;19277;51.778;7.912;2022-08-16T09:21:10;27.80;64.10
32600;DHT22;19277;51.778;7.912;2022-08-16T09:23:37;27.80;64.40
32600;DHT22;19277;51.778;7.912;2022-08-16T09:26:07;27.70;64.50
32600;DHT22;19277;51.778;7.912;2022-08-16T09:28:35;27.60;64.60
32600;DHT22;19277;51.778;7.912;2022-08-16T09:31:02;27.60;64.80
32600;DHT22;19277;51.778;7.912;2022-08-16T09:33:28;27.60;65.50
32600;DHT22;19277;51.778;7.912;2022-08-16T09:35:54;27.80;65.40
32600;DHT22;19277;51.778;7.912;2022-08-16T09:38:20;27.90;65.20
32600;DHT22;19277;51.778;7.912;2022-08-16T09:40:46;28.00;64.90
32600;DHT22;19277;51.778;7.912;2022-08-16T09:43:17;28.10;64.50
32600;DHT22;19277;51.778;7.912;2022-08-16T09:45:43;28.20;64.20
32600;DHT22;19277;51.778;7.912;2022-08-16T09:48:11;28.30;64.00
32600;DHT22;19277;51.778;7.912;2022-08-16T09:50:37;28.30;63.80
32600;DHT22;19277;51.778;7.912;2022-08-16T09:53:07;28.40;63.50
32600;DHT22;19277;51.778;7.912;2022-08-16T09:55:33;28.40;63.20
32600;DHT22;19277;51.778;7.912;2022-08-16T09:57:59;28.40;63.00
32600;DHT22;19277;51.778;7.912;2022-08-16T10:00:25;28.50;62.90
32600;DHT22;19277;51.778;7.912;2022-08-16T10:02:52;28.50;62.70
32600;DHT22;19277;51.778;7.912;2022-08-16T10:05:19;28.60;62.60
32600;DHT22;19277;51.778;7.912;2022-08-16T10:07:46;28.60;62.40
32600;DHT22;19277;51.778;7.912;2022-08-16T10:10:20;28.60;62.10
32600;DHT22;19277;51.778;7.912;2022-08-16T10:12:46;28.60;62.00
32600;DHT22;19277;51.778;7.912;2022-08-16T10:15:30;28.60;61.70
32600;DHT22;19277;51.778;7.912;2022-08-16T10:17:56;28.60;61.60
32600;DHT22;19277;51.778;7.912;2022-08-16T10:20:23;28.70;62.00
32600;DHT22;19277;51.778;7.912;2022-08-16T10:22:51;28.70;61.40
32600;DHT22;19277;51.778;7.912;2022-08-16T10:25:17;28.70;61.30
32600;DHT22;19277;51.778;7.912;2022-08-16T10:27:44;28.70;61.30
32600;DHT22;19277;51.778;7.912;2022-08-16T10:30:11;28.70;61.20
32600;DHT22;19277;51.778;7.912;2022-08-16T10:32:37;28.70;60.90
32600;DHT22;19277;51.778;7.912;2022-08-16T10:35:04;28.80;61.00
32600;DHT22;19277;51.778;7.912;2022-08-16T10:37:30;28.70;60.80
32600;DHT22;19277;51.778;7.912;2022-08-16T10:39:56;28.80;60.80
32600;DHT22;19277;51.778;7.912;2022-08-16T10:42:22;28.80;60.70
32600;DHT22;19277;51.778;7.912;2022-08-16T10:44:48;28.80;60.60
32600;DHT22;19277;51.778;7.912;2022-08-16T10:47:14;28.80;60.60
32600;DHT22;19277;51.778;7.912;2022-08-16T10:49:39;28.80;60.50
32600;DHT22;19277;51.778;7.912;2022-08-16T10:52:05;28.80;60.30
32600;DHT22;19277;51.778;7.912;2022-08-16T10:54:31;28.90;60.20
32600;DHT22;19277;51.778;7.912;2022-08-16T10:57:02;28.90;60.30
32600;DHT22;19277;51.778;7.912;2022-08-16T10:59:29;28.90;60.60
32600;DHT22;19277;51.778;7.912;2022-08-16T11:01:56;28.90;60.70
32600;DHT22;19277;51.778;7.912;2022-08-16T11:04:22;28.90;60.90
32600;DHT22;19277;51.778;7.912;2022-08-16T11:06:47;28.90;61.20
32600;DHT22;19277;51.778;7.912;2022-08-16T11:09:13;28.90;60.90
32600;DHT22;19277;51.778;7.912;2022-08-16T11:11:39;28.90;60.30
32600;DHT22;19277;51.778;7.912;2022-08-16T11:14:04;28.90;60.00
32600;DHT22;19277;51.778;7.912;2022-08-16T11:16:31;28.90;59.80
32600;DHT22;19277;51.778;7.912;2022-08-16T11:18:57;28.90;59.50
32600;DHT22;19277;51.778;7.912;2022-08-16T11:21:23;28.90;59.30
32600;DHT22;19277;51.778;7.912;2022-08-16T11:23:51;29.00;59.20
32600;DHT22;19277;51.778;7.912;2022-08-16T11:26:17;29.00;59.10
32600;DHT22;19277;51.778;7.912;2022-08-16T11:28:43;29.00;58.90
32600;DHT22;19277;51.778;7.912;2022-08-16T11:31:09;29.00;58.80
32600;DHT22;19277;51.778;7.912;2022-08-16T11:33:35;29.00;58.70
32600;DHT22;19277;51.778;7.912;2022-08-16T11:36:01;29.00;58.90
32600;DHT22;19277;51.778;7.912;2022-08-16T11:38:28;29.10;58.90
32600;DHT22;19277;51.778;7.912;2022-08-16T11:40:57;29.10;59.10
32600;DHT22;19277;51.778;7.912;2022-08-16T11:43:28;29.10;59.00
32600;DHT22;19277;51.778;7.912;2022-08-16T11:45:57;29.10;59.20
32600;DHT22;19277;51.778;7.912;2022-08-16T11:48:25;29.10;59.10
32600;DHT22;19277;51.778;7.912;2022-08-16T11:50:51;29.20;59.20
32600;DHT22;19277;51.778;7.912;2022-08-16T11:53:17;29.20;59.10
32600;DHT22;19277;51.778;7.912;2022-08-16T11:55:45;29.20;59.40
32600;DHT22;19277;51.778;7.912;2022-08-16T11:58:11;29.20;58.90
32600;DHT22;19277;51.778;7.912;2022-08-16T12:00:39;29.20;58.90
32600;DHT22;19277;51.778;7.912;2022-08-16T12:03:06;29.20;58.80
32600;DHT22;19277;51.778;7.912;2022-08-16T12:05:32;29.30;58.80
32600;DHT22;19277;51.778;7.912;2022-08-16T12:07:57;29.30;58.70
32600;DHT22;19277;51.778;7.912;2022-08-16T12:10:25;29.20;58.70
32600;DHT22;19277;51.778;7.912;2022-08-16T12:12:51;29.30;58.80
32600;DHT22;19277;51.778;7.912;2022-08-16T12:15:18;29.30;59.00
32600;DHT22;19277;51.778;7.912;2022-08-16T12:17:44;29.30;58.80
32600;DHT22;19277;51.778;7.912;2022-08-16T12:20:14;29.40;58.90
32600;DHT22;19277;51.778;7.912;2022-08-16T12:22:40;29.40;58.90
32600;DHT22;19277;51.778;7.912;2022-08-16T12:25:14;29.40;59.00
32600;DHT22;19277;51.778;7.912;2022-08-16T12:27:41;29.40;58.90
32600;DHT22;19277;51.778;7.912;2022-08-16T12:30:10;29.40;58.90
32600;DHT22;19277;51.778;7.912;2022-08-16T12:32:35;29.50;58.80
32600;DHT22;19277;51.778;7.912;2022-08-16T12:35:02;29.50;59.00
32600;DHT22;19277;51.778;7.912;2022-08-16T12:37:29;29.50;58.30
32600;DHT22;19277;51.778;7.912;2022-08-16T12:39:55;29.50;58.10
32600;DHT22;19277;51.778;7.912;2022-08-16T12:42:22;29.60;58.10
32600;DHT22;19277;51.778;7.912;2022-08-16T12:44:48;29.60;58.10
32600;DHT22;19277;51.778;7.912;2022-08-16T12:47:15;29.60;58.10
32600;DHT22;19277;51.778;7.912;2022-08-16T12:50:00;29.60;58.00
32600;DHT22;19277;51.778;7.912;2022-08-16T12:52:26;29.70;58.40
32600;DHT22;19277;51.778;7.912;2022-08-16T12:54:52;29.70;58.20
32600;DHT22;19277;51.778;7.912;2022-08-16T12:57:22;29.70;58.70
32600;DHT22;19277;51.778;7.912;2022-08-16T12:59:49;29.60;58.00
32600;DHT22;19277;51.778;7.912;2022-08-16T13:02:15;29.70;58.10
32600;DHT22;19277;51.778;7.912;2022-08-16T13:04:40;29.70;57.90
32600;DHT22;19277;51.778;7.912;2022-08-16T13:07:06;29.70;57.90
32600;DHT22;19277;51.778;7.912;2022-08-16T13:09:32;29.70;57.90
32600;DHT22;19277;51.778;7.912;2022-08-16T13:14:34;29.70;57.70
32600;DHT22;19277;51.778;7.912;2022-08-16T13:17:03;29.70;57.50
32600;DHT22;19277;51.778;7.912;2022-08-16T13:19:28;29.70;57.40
32600;DHT22;19277;51.778;7.912;2022-08-16T13:21:54;29.70;57.40
32600;DHT22;19277;51.778;7.912;2022-08-16T13:24:20;29.70;57.40
32600;DHT22;19277;51.778;7.912;2022-08-16T13:26:45;29.70;57.50
32600;DHT22;19277;51.778;7.912;2022-08-16T13:29:11;29.80;57.50
32600;DHT22;19277;51.778;7.912;2022-08-16T13:31:36;29.80;57.50
32600;DHT22;19277;51.778;7.912;2022-08-16T13:34:02;29.80;57.40
32600;DHT22;19277;51.778;7.912;2022-08-16T13:36:28;29.80;57.00
32600;DHT22;19277;51.778;7.912;2022-08-16T13:38:53;29.80;56.70
32600;DHT22;19277;51.778;7.912;2022-08-16T13:41:19;29.90;56.70
32600;DHT22;19277;51.778;7.912;2022-08-16T13:43:45;29.90;55.70
32600;DHT22;19277;51.778;7.912;2022-08-16T13:46:11;29.90;56.40
32600;DHT22;19277;51.778;7.912;2022-08-16T13:48:37;29.90;56.40
32600;DHT22;19277;51.778;7.912;2022-08-16T13:51:03;29.90;56.40
32600;DHT22;19277;51.778;7.912;2022-08-16T13:53:29;29.90;56.40
32600;DHT22;19277;51.778;7.912;2022-08-16T13:55:55;29.90;56.50
32600;DHT22;19277;51.778;7.912;2022-08-16T13:58:22;29.90;56.40
32600;DHT22;19277;51.778;7.912;2022-08-16T14:00:49;30.00;56.40
32600;DHT22;19277;51.778;7.912;2022-08-16T14:03:15;30.00;56.30
32600;DHT22;19277;51.778;7.912;2022-08-16T14:05:41;30.00;56.40
32600;DHT22;19277;51.778;7.912;2022-08-16T14:08:07;30.00;56.20
32600;DHT22;19277;51.778;7.912;2022-08-16T14:10:33;30.00;55.60
32600;DHT22;19277;51.778;7.912;2022-08-16T14:12:58;30.00;55.20
32600;DHT22;19277;51.778;7.912;2022-08-16T14:15:25;30.00;54.90
32600;DHT22;19277;51.778;7.912;2022-08-16T14:17:50;30.00;54.50
32600;DHT22;19277;51.778;7.912;2022-08-16T14:20:16;30.10;54.50
32600;DHT22;19277;51.778;7.912;2022-08-16T14:22:42;30.10;54.30
32600;DHT22;19277;51.778;7.912;2022-08-16T14:25:15;30.00;54.20
32600;DHT22;19277;51.778;7.912;2022-08-16T14:27:40;30.10;54.70
32600;DHT22;19277;51.778;7.912;2022-08-16T14:30:08;30.10;54.10
32600;DHT22;19277;51.778;7.912;2022-08-16T14:32:35;30.10;54.00
32600;DHT22;19277;51.778;7.912;2022-08-16T14:35:23;30.10;54.10
32600;DHT22;19277;51.778;7.912;2022-08-16T14:37:49;30.10;54.30
32600;DHT22;19277;51.778;7.912;2022-08-16T14:40:16;30.10;54.60
32600;DHT22;19277;51.778;7.912;2022-08-16T14:42:43;30.10;54.70
32600;DHT22;19277;51.778;7.912;2022-08-16T14:45:10;30.10;54.90
32600;DHT22;19277;51.778;7.912;2022-08-16T14:47:36;30.10;55.00
32600;DHT22;19277;51.778;7.912;2022-08-16T14:50:08;30.10;55.00
32600;DHT22;19277;51.778;7.912;2022-08-16T14:52:35;30.10;55.10
32600;DHT22;19277;51.778;7.912;2022-08-16T14:55:02;30.10;55.00
32600;DHT22;19277;51.778;7.912;2022-08-16T14:57:27;30.20;54.60
32600;DHT22;19277;51.778;7.912;2022-08-16T14:59:53;30.20;54.60
32600;DHT22;19277;51.778;7.912;2022-08-16T15:02:23;30.20;54.50
32600;DHT22;19277;51.778;7.912;2022-08-16T15:04:49;30.20;54.50
32600;DHT22;19277;51.778;7.912;2022-08-16T15:07:17;30.20;54.40
32600;DHT22;19277;51.778;7.912;2022-08-16T15:09:44;30.20;54.50
32600;DHT22;19277;51.778;7.912;2022-08-16T15:12:14;30.20;54.80
32600;DHT22;19277;51.778;7.912;2022-08-16T15:14:42;30.20;54.90
32600;DHT22;19277;51.778;7.912;2022-08-16T15:17:08;30.20;54.70
32600;DHT22;19277;51.778;7.912;2022-08-16T15:19:34;30.20;54.50
32600;DHT22;19277;51.778;7.912;2022-08-16T15:22:00;30.20;54.30
32600;DHT22;19277;51.778;7.912;2022-08-16T15:24:26;30.30;54.50
32600;DHT22;19277;51.778;7.912;2022-08-16T15:26:52;30.30;54.60
32600;DHT22;19277;51.778;7.912;2022-08-16T15:29:18;30.30;54.70
32600;DHT22;19277;51.778;7.912;2022-08-16T15:31:45;30.30;54.70
32600;DHT22;19277;51.778;7.912;2022-08-16T15:34:11;30.30;54.70